Terminal Aerodrome Forecast
Issued by NWS Wichita, KS

Home | Current Version | Previous Version | Text Only | Print | Product List | Glossary Off
Versions: 1 2 3 4 5 6 7 8 9 10 11 12 13 14 15 16 17 18 19 20 21 22 23

000
FTUS43 KICT 291700
TAFICT
TAF
KICT 291720Z 2918/3018 21011KT P6SM FEW040 SCT080
     FM292000 23013KT P6SM VCSH SCT060
     FM300000 26006KT P6SM FEW100=

USA.gov is the U.S. government's official web portal to all federal, state and local government web resources and services.